sensor_id;sensor_type;location;lat;lon;timestamp;P1;durP1;ratioP1;P2;durP2;ratioP2
3817;SDS011;1924;48.078;11.516;2023-09-18T04:02:18;35.97;;;0.80;;
3817;SDS011;1924;48.078;11.516;2023-09-18T04:04:47;35.97;;;0.80;;
3817;SDS011;1924;48.078;11.516;2023-09-18T04:07:14;36.03;;;0.80;;
3817;SDS011;1924;48.078;11.516;2023-09-18T04:09:41;35.93;;;0.80;;
3817;SDS011;1924;48.078;11.516;2023-09-18T04:12:08;36.07;;;0.80;;
3817;SDS011;1924;48.078;11.516;2023-09-18T04:14:35;36.10;;;0.80;;
3817;SDS011;1924;48.078;11.516;2023-09-18T04:17:02;35.90;;;0.80;;
3817;SDS011;1924;48.078;11.516;2023-09-18T04:19:31;36.10;;;0.80;;
3817;SDS011;1924;48.078;11.516;2023-09-18T04:21:57;35.97;;;0.80;;
3817;SDS011;1924;48.078;11.516;2023-09-18T04:24:25;35.77;;;0.80;;
3817;SDS011;1924;48.078;11.516;2023-09-18T04:26:52;35.93;;;0.80;;
3817;SDS011;1924;48.078;11.516;2023-09-18T04:29:19;35.87;;;0.80;;
3817;SDS011;1924;48.078;11.516;2023-09-18T04:31:46;36.00;;;0.80;;
3817;SDS011;1924;48.078;11.516;2023-09-18T04:34:13;35.90;;;0.80;;
3817;SDS011;1924;48.078;11.516;2023-09-18T04:36:41;35.73;;;0.80;;
3817;SDS011;1924;48.078;11.516;2023-09-18T04:39:09;35.87;;;0.80;;
3817;SDS011;1924;48.078;11.516;2023-09-18T04:41:36;35.77;;;0.80;;
3817;SDS011;1924;48.078;11.516;2023-09-18T04:44:02;35.77;;;0.80;;
3817;SDS011;1924;48.078;11.516;2023-09-18T04:46:30;36.07;;;0.80;;
3817;SDS011;1924;48.078;11.516;2023-09-18T04:48:57;35.80;;;0.80;;
3817;SDS011;1924;48.078;11.516;2023-09-18T04:51:23;35.80;;;0.80;;
3817;SDS011;1924;48.078;11.516;2023-09-18T04:53:51;36.00;;;0.80;;
3817;SDS011;1924;48.078;11.516;2023-09-18T04:56:19;35.90;;;0.80;;
3817;SDS011;1924;48.078;11.516;2023-09-18T04:58:46;35.83;;;0.80;;
3817;SDS011;1924;48.078;11.516;2023-09-18T05:01:13;35.90;;;0.80;;
3817;SDS011;1924;48.078;11.516;2023-09-18T05:03:40;35.77;;;0.80;;
3817;SDS011;1924;48.078;11.516;2023-09-18T05:06:07;35.93;;;0.80;;
3817;SDS011;1924;48.078;11.516;2023-09-18T05:08:34;35.77;;;0.80;;
3817;SDS011;1924;48.078;11.516;2023-09-18T05:11:03;36.00;;;0.80;;
3817;SDS011;1924;48.078;11.516;2023-09-18T05:13:30;35.87;;;0.80;;
3817;SDS011;1924;48.078;11.516;2023-09-18T05:15:56;35.67;;;0.80;;
3817;SDS011;1924;48.078;11.516;2023-09-18T05:18:23;35.80;;;0.80;;
3817;SDS011;1924;48.078;11.516;2023-09-18T05:20:50;36.00;;;0.80;;
3817;SDS011;1924;48.078;11.516;2023-09-18T05:23:17;35.93;;;0.80;;
3817;SDS011;1924;48.078;11.516;2023-09-18T05:25:45;35.90;;;0.80;;
3817;SDS011;1924;48.078;11.516;2023-09-18T05:28:13;35.77;;;0.80;;
3817;SDS011;1924;48.078;11.516;2023-09-18T05:30:40;35.90;;;0.80;;
3817;SDS011;1924;48.078;11.516;2023-09-18T05:33:07;35.60;;;0.90;;
3817;SDS011;1924;48.078;11.516;2023-09-18T05:35:34;35.90;;;0.80;;
3817;SDS011;1924;48.078;11.516;2023-09-18T05:38:02;35.70;;;0.80;;
3817;SDS011;1924;48.078;11.516;2023-09-18T05:40:30;35.87;;;0.80;;
3817;SDS011;1924;48.078;11.516;2023-09-18T05:42:57;35.73;;;0.80;;
3817;SDS011;1924;48.078;11.516;2023-09-18T05:45:25;35.80;;;0.80;;
3817;SDS011;1924;48.078;11.516;2023-09-18T05:47:53;35.57;;;0.80;;
3817;SDS011;1924;48.078;11.516;2023-09-18T05:50:29;35.50;;;0.80;;
3817;SDS011;1924;48.078;11.516;2023-09-18T05:52:56;35.60;;;0.80;;
3817;SDS011;1924;48.078;11.516;2023-09-18T05:55:25;35.67;;;0.80;;
3817;SDS011;1924;48.078;11.516;2023-09-18T05:57:52;35.47;;;0.80;;
3817;SDS011;1924;48.078;11.516;2023-09-18T06:00:19;35.47;;;0.80;;
3817;SDS011;1924;48.078;11.516;2023-09-18T06:02:48;35.47;;;0.80;;
3817;SDS011;1924;48.078;11.516;2023-09-18T06:05:16;35.43;;;0.80;;
3817;SDS011;1924;48.078;11.516;2023-09-18T06:07:46;35.47;;;0.80;;
3817;SDS011;1924;48.078;11.516;2023-09-18T06:10:13;35.47;;;0.90;;
3817;SDS011;1924;48.078;11.516;2023-09-18T06:12:40;35.47;;;0.80;;
3817;SDS011;1924;48.078;11.516;2023-09-18T06:15:07;35.43;;;0.80;;
3817;SDS011;1924;48.078;11.516;2023-09-18T06:17:35;35.63;;;0.80;;
3817;SDS011;1924;48.078;11.516;2023-09-18T06:20:05;35.33;;;0.80;;
3817;SDS011;1924;48.078;11.516;2023-09-18T06:22:35;35.23;;;0.80;;
3817;SDS011;1924;48.078;11.516;2023-09-18T06:25:03;35.47;;;0.80;;
3817;SDS011;1924;48.078;11.516;2023-09-18T06:27:31;35.37;;;0.80;;
3817;SDS011;1924;48.078;11.516;2023-09-18T06:30:01;35.63;;;0.80;;
3817;SDS011;1924;48.078;11.516;2023-09-18T06:32:28;35.50;;;0.80;;
3817;SDS011;1924;48.078;11.516;2023-09-18T06:34:55;35.63;;;0.80;;
3817;SDS011;1924;48.078;11.516;2023-09-18T06:37:24;35.70;;;0.80;;
3817;SDS011;1924;48.078;11.516;2023-09-18T06:39:51;35.77;;;0.80;;
3817;SDS011;1924;48.078;11.516;2023-09-18T06:42:18;35.63;;;0.80;;
3817;SDS011;1924;48.078;11.516;2023-09-18T06:44:45;35.80;;;0.80;;
3817;SDS011;1924;48.078;11.516;2023-09-18T06:47:12;35.83;;;0.80;;
3817;SDS011;1924;48.078;11.516;2023-09-18T06:49:39;35.77;;;0.80;;
3817;SDS011;1924;48.078;11.516;2023-09-18T06:52:06;35.87;;;0.80;;
3817;SDS011;1924;48.078;11.516;2023-09-18T06:54:35;35.77;;;0.80;;
3817;SDS011;1924;48.078;11.516;2023-09-18T06:57:02;35.60;;;0.90;;
3817;SDS011;1924;48.078;11.516;2023-09-18T06:59:47;35.53;;;0.80;;
3817;SDS011;1924;48.078;11.516;2023-09-18T07:02:14;35.70;;;0.80;;
3817;SDS011;1924;48.078;11.516;2023-09-18T07:04:46;35.47;;;0.80;;
3817;SDS011;1924;48.078;11.516;2023-09-18T07:07:13;35.60;;;0.80;;
3817;SDS011;1924;48.078;11.516;2023-09-18T07:09:43;35.17;;;0.80;;
3817;SDS011;1924;48.078;11.516;2023-09-18T07:12:11;35.63;;;0.80;;
3817;SDS011;1924;48.078;11.516;2023-09-18T07:14:38;35.33;;;0.80;;
3817;SDS011;1924;48.078;11.516;2023-09-18T07:17:08;35.67;;;0.80;;
3817;SDS011;1924;48.078;11.516;2023-09-18T07:19:35;35.53;;;0.80;;
3817;SDS011;1924;48.078;11.516;2023-09-18T07:22:05;35.57;;;0.80;;
3817;SDS011;1924;48.078;11.516;2023-09-18T07:24:32;35.60;;;0.80;;
3817;SDS011;1924;48.078;11.516;2023-09-18T07:27:01;35.57;;;0.80;;
3817;SDS011;1924;48.078;11.516;2023-09-18T07:29:28;35.73;;;0.80;;
3817;SDS011;1924;48.078;11.516;2023-09-18T07:31:55;35.63;;;0.80;;
3817;SDS011;1924;48.078;11.516;2023-09-18T07:34:22;35.57;;;0.80;;
3817;SDS011;1924;48.078;11.516;2023-09-18T07:36:49;35.73;;;0.80;;
3817;SDS011;1924;48.078;11.516;2023-09-18T07:41:55;35.70;;;0.80;;
3817;SDS011;1924;48.078;11.516;2023-09-18T07:44:30;35.67;;;0.80;;
3817;SDS011;1924;48.078;11.516;2023-09-18T07:46:57;35.90;;;0.80;;
3817;SDS011;1924;48.078;11.516;2023-09-18T07:49:45;35.87;;;0.80;;
3817;SDS011;1924;48.078;11.516;2023-09-18T07:52:42;35.97;;;0.80;;
3817;SDS011;1924;48.078;11.516;2023-09-18T07:55:13;35.90;;;0.80;;
3817;SDS011;1924;48.078;11.516;2023-09-18T07:57:44;35.90;;;0.80;;
3817;SDS011;1924;48.078;11.516;2023-09-18T08:00:23;35.80;;;0.80;;
3817;SDS011;1924;48.078;11.516;2023-09-18T08:02:53;35.77;;;0.80;;
3817;SDS011;1924;48.078;11.516;2023-09-18T08:05:30;35.80;;;0.80;;
3817;SDS011;1924;48.078;11.516;2023-09-18T08:08:06;35.87;;;0.80;;
3817;SDS011;1924;48.078;11.516;2023-09-18T08:10:36;35.93;;;0.80;;
3817;SDS011;1924;48.078;11.516;2023-09-18T08:13:23;35.90;;;0.80;;
3817;SDS011;1924;48.078;11.516;2023-09-18T08:15:51;35.80;;;0.80;;
3817;SDS011;1924;48.078;11.516;2023-09-18T08:18:19;35.63;;;0.80;;
3817;SDS011;1924;48.078;11.516;2023-09-18T08:20:51;35.77;;;0.80;;
3817;SDS011;1924;48.078;11.516;2023-09-18T08:23:19;35.87;;;0.80;;
3817;SDS011;1924;48.078;11.516;2023-09-18T08:25:46;35.67;;;0.80;;
3817;SDS011;1924;48.078;11.516;2023-09-18T08:28:13;35.87;;;0.80;;
3817;SDS011;1924;48.078;11.516;2023-09-18T08:30:41;35.87;;;0.80;;
3817;SDS011;1924;48.078;11.516;2023-09-18T08:33:13;35.83;;;0.80;;
3817;SDS011;1924;48.078;11.516;2023-09-18T08:35:40;35.77;;;0.80;;
3817;SDS011;1924;48.078;11.516;2023-09-18T08:38:07;35.60;;;0.80;;
3817;SDS011;1924;48.078;11.516;2023-09-18T08:40:33;35.90;;;0.80;;
3817;SDS011;1924;48.078;11.516;2023-09-18T08:43:01;35.87;;;0.80;;
3817;SDS011;1924;48.078;11.516;2023-09-18T08:45:31;35.63;;;0.80;;
3817;SDS011;1924;48.078;11.516;2023-09-18T08:48:02;35.90;;;0.80;;
3817;SDS011;1924;48.078;11.516;2023-09-18T08:50:30;35.70;;;0.80;;
3817;SDS011;1924;48.078;11.516;2023-09-18T08:53:07;35.63;;;0.80;;
3817;SDS011;1924;48.078;11.516;2023-09-18T08:55:34;35.80;;;0.80;;
3817;SDS011;1924;48.078;11.516;2023-09-18T08:58:01;35.77;;;0.80;;
3817;SDS011;1924;48.078;11.516;2023-09-18T09:00:28;35.87;;;0.80;;
3817;SDS011;1924;48.078;11.516;2023-09-18T09:02:55;35.67;;;0.80;;
3817;SDS011;1924;48.078;11.516;2023-09-18T09:05:22;35.80;;;0.80;;
3817;SDS011;1924;48.078;11.516;2023-09-18T09:07:51;35.37;;;0.80;;
3817;SDS011;1924;48.078;11.516;2023-09-18T09:13:23;35.53;;;0.80;;
3817;SDS011;1924;48.078;11.516;2023-09-18T09:15:51;35.27;;;0.80;;
3817;SDS011;1924;48.078;11.516;2023-09-18T09:18:21;35.47;;;0.80;;
3817;SDS011;1924;48.078;11.516;2023-09-18T09:20:55;35.57;;;0.80;;
3817;SDS011;1924;48.078;11.516;2023-09-18T09:23:25;35.37;;;0.80;;
3817;SDS011;1924;48.078;11.516;2023-09-18T09:25:53;35.50;;;0.80;;
3817;SDS011;1924;48.078;11.516;2023-09-18T09:28:28;35.60;;;0.80;;
3817;SDS011;1924;48.078;11.516;2023-09-18T09:30:59;35.57;;;0.80;;
3817;SDS011;1924;48.078;11.516;2023-09-18T09:33:27;35.70;;;0.80;;
3817;SDS011;1924;48.078;11.516;2023-09-18T09:35:54;35.47;;;0.80;;
3817;SDS011;1924;48.078;11.516;2023-09-18T09:38:28;35.70;;;0.80;;
3817;SDS011;1924;48.078;11.516;2023-09-18T09:40:58;35.50;;;0.80;;
3817;SDS011;1924;48.078;11.516;2023-09-18T09:43:26;35.67;;;0.80;;
3817;SDS011;1924;48.078;11.516;2023-09-18T09:45:56;35.43;;;0.80;;
3817;SDS011;1924;48.078;11.516;2023-09-18T09:48:24;35.37;;;0.80;;
3817;SDS011;1924;48.078;11.516;2023-09-18T09:50:51;35.47;;;0.80;;
3817;SDS011;1924;48.078;11.516;2023-09-18T09:56:13;35.43;;;0.80;;
3817;SDS011;1924;48.078;11.516;2023-09-18T09:58:43;35.73;;;0.80;;
3817;SDS011;1924;48.078;11.516;2023-09-18T10:01:11;35.60;;;0.80;;
3817;SDS011;1924;48.078;11.516;2023-09-18T10:03:43;35.60;;;0.80;;
3817;SDS011;1924;48.078;11.516;2023-09-18T10:06:11;35.47;;;0.80;;
3817;SDS011;1924;48.078;11.516;2023-09-18T10:08:43;35.47;;;0.80;;
3817;SDS011;1924;48.078;11.516;2023-09-18T10:11:10;35.53;;;0.80;;
3817;SDS011;1924;48.078;11.516;2023-09-18T10:13:42;35.63;;;0.80;;
3817;SDS011;1924;48.078;11.516;2023-09-18T10:16:15;35.40;;;0.80;;
3817;SDS011;1924;48.078;11.516;2023-09-18T10:18:45;35.47;;;0.80;;
3817;SDS011;1924;48.078;11.516;2023-09-18T10:21:35;35.70;;;0.80;;
3817;SDS011;1924;48.078;11.516;2023-09-18T10:24:11;35.43;;;0.80;;
3817;SDS011;1924;48.078;11.516;2023-09-18T10:26:47;35.53;;;0.80;;
3817;SDS011;1924;48.078;11.516;2023-09-18T10:29:20;35.57;;;0.80;;
3817;SDS011;1924;48.078;11.516;2023-09-18T10:31:50;35.63;;;0.80;;
3817;SDS011;1924;48.078;11.516;2023-09-18T10:34:18;35.43;;;0.80;;
3817;SDS011;1924;48.078;11.516;2023-09-18T10:36:46;35.37;;;0.80;;
3817;SDS011;1924;48.078;11.516;2023-09-18T10:39:15;35.60;;;0.80;;
3817;SDS011;1924;48.078;11.516;2023-09-18T10:41:46;35.43;;;0.80;;
3817;SDS011;1924;48.078;11.516;2023-09-18T10:44:14;35.67;;;0.80;;
3817;SDS011;1924;48.078;11.516;2023-09-18T10:46:42;35.37;;;0.80;;
3817;SDS011;1924;48.078;11.516;2023-09-18T10:49:09;35.43;;;0.80;;
3817;SDS011;1924;48.078;11.516;2023-09-18T10:51:37;35.40;;;0.80;;
3817;SDS011;1924;48.078;11.516;2023-09-18T10:54:07;35.27;;;0.80;;
3817;SDS011;1924;48.078;11.516;2023-09-18T10:56:35;35.47;;;0.80;;
3817;SDS011;1924;48.078;11.516;2023-09-18T10:59:05;35.43;;;0.80;;
3817;SDS011;1924;48.078;11.516;2023-09-18T11:01:34;35.50;;;0.80;;
3817;SDS011;1924;48.078;11.516;2023-09-18T11:04:03;35.63;;;0.80;;
3817;SDS011;1924;48.078;11.516;2023-09-18T11:09:31;35.37;;;0.80;;
3817;SDS011;1924;48.078;11.516;2023-09-18T11:12:08;35.37;;;0.80;;
3817;SDS011;1924;48.078;11.516;2023-09-18T11:14:43;35.37;;;0.80;;
3817;SDS011;1924;48.078;11.516;2023-09-18T11:17:30;35.60;;;0.80;;
3817;SDS011;1924;48.078;11.516;2023-09-18T11:20:03;35.33;;;0.80;;
3817;SDS011;1924;48.078;11.516;2023-09-18T11:22:34;35.40;;;0.80;;
3817;SDS011;1924;48.078;11.516;2023-09-18T11:28:00;35.43;;;0.80;;
3817;SDS011;1924;48.078;11.516;2023-09-18T11:30:28;35.57;;;0.80;;
3817;SDS011;1924;48.078;11.516;2023-09-18T11:32:55;35.47;;;0.80;;
3817;SDS011;1924;48.078;11.516;2023-09-18T11:35:23;35.33;;;0.80;;
3817;SDS011;1924;48.078;11.516;2023-09-18T11:40:37;35.70;;;0.80;;
3817;SDS011;1924;48.078;11.516;2023-09-18T11:43:20;35.50;;;0.80;;
3817;SDS011;1924;48.078;11.516;2023-09-18T11:45:50;35.70;;;0.80;;
3817;SDS011;1924;48.078;11.516;2023-09-18T11:48:19;35.47;;;0.80;;
3817;SDS011;1924;48.078;11.516;2023-09-18T11:50:51;35.67;;;0.80;;
3817;SDS011;1924;48.078;11.516;2023-09-18T11:53:19;35.70;;;0.80;;
3817;SDS011;1924;48.078;11.516;2023-09-18T11:55:47;35.90;;;0.90;;
3817;SDS011;1924;48.078;11.516;2023-09-18T11:58:14;35.57;;;0.80;;
3817;SDS011;1924;48.078;11.516;2023-09-18T12:00:42;35.87;;;0.80;;
3817;SDS011;1924;48.078;11.516;2023-09-18T12:03:15;35.83;;;0.80;;
3817;SDS011;1924;48.078;11.516;2023-09-18T12:05:49;35.87;;;0.80;;
3817;SDS011;1924;48.078;11.516;2023-09-18T12:08:18;35.93;;;0.80;;
3817;SDS011;1924;48.078;11.516;2023-09-18T12:10:47;35.73;;;0.80;;
3817;SDS011;1924;48.078;11.516;2023-09-18T12:13:15;36.03;;;0.80;;
3817;SDS011;1924;48.078;11.516;2023-09-18T12:15:43;35.90;;;0.80;;
3817;SDS011;1924;48.078;11.516;2023-09-18T12:18:10;35.73;;;0.80;;
3817;SDS011;1924;48.078;11.516;2023-09-18T12:20:44;35.97;;;0.80;;
3817;SDS011;1924;48.078;11.516;2023-09-18T12:23:11;36.00;;;0.80;;
3817;SDS011;1924;48.078;11.516;2023-09-18T12:25:38;35.93;;;0.90;;
3817;SDS011;1924;48.078;11.516;2023-09-18T12:28:05;35.90;;;0.80;;
3817;SDS011;1924;48.078;11.516;2023-09-18T12:30:33;35.83;;;0.80;;
3817;SDS011;1924;48.078;11.516;2023-09-18T12:33:01;35.83;;;0.80;;
3817;SDS011;1924;48.078;11.516;2023-09-18T12:40:44;35.97;;;0.80;;
3817;SDS011;1924;48.078;11.516;2023-09-18T12:43:21;35.83;;;0.80;;
3817;SDS011;1924;48.078;11.516;2023-09-18T12:46:05;35.77;;;0.80;;
3817;SDS011;1924;48.078;11.516;2023-09-18T12:51:53;35.90;;;0.80;;
3817;SDS011;1924;48.078;11.516;2023-09-18T12:54:21;35.97;;;0.80;;
3817;SDS011;1924;48.078;11.516;2023-09-18T12:57:02;35.77;;;0.80;;
3817;SDS011;1924;48.078;11.516;2023-09-18T12:59:31;35.87;;;0.80;;
3817;SDS011;1924;48.078;11.516;2023-09-18T13:01:58;35.67;;;0.80;;
3817;SDS011;1924;48.078;11.516;2023-09-18T13:04:26;35.80;;;0.80;;
3817;SDS011;1924;48.078;11.516;2023-09-18T13:07:03;35.67;;;0.80;;
3817;SDS011;1924;48.078;11.516;2023-09-18T13:09:32;35.73;;;0.80;;
3817;SDS011;1924;48.078;11.516;2023-09-18T13:12:00;35.83;;;0.80;;
3817;SDS011;1924;48.078;11.516;2023-09-18T13:14:27;35.67;;;0.80;;
3817;SDS011;1924;48.078;11.516;2023-09-18T13:17:00;35.83;;;0.80;;
3817;SDS011;1924;48.078;11.516;2023-09-18T13:19:30;35.90;;;0.80;;
3817;SDS011;1924;48.078;11.516;2023-09-18T13:21:57;35.80;;;0.80;;
3817;SDS011;1924;48.078;11.516;2023-09-18T13:24:27;35.83;;;0.80;;
3817;SDS011;1924;48.078;11.516;2023-09-18T13:26:55;35.77;;;0.80;;
3817;SDS011;1924;48.078;11.516;2023-09-18T13:29:23;35.67;;;0.80;;
3817;SDS011;1924;48.078;11.516;2023-09-18T13:31:51;35.63;;;0.80;;
3817;SDS011;1924;48.078;11.516;2023-09-18T13:34:18;35.73;;;0.80;;
3817;SDS011;1924;48.078;11.516;2023-09-18T13:36:47;35.83;;;0.80;;
3817;SDS011;1924;48.078;11.516;2023-09-18T13:39:14;35.87;;;0.80;;
3817;SDS011;1924;48.078;11.516;2023-09-18T13:41:42;35.80;;;0.80;;
3817;SDS011;1924;48.078;11.516;2023-09-18T13:44:09;35.80;;;0.80;;
3817;SDS011;1924;48.078;11.516;2023-09-18T13:46:35;35.87;;;0.80;;
3817;SDS011;1924;48.078;11.516;2023-09-18T13:49:03;35.93;;;0.80;;
3817;SDS011;1924;48.078;11.516;2023-09-18T13:51:30;36.00;;;0.80;;
3817;SDS011;1924;48.078;11.516;2023-09-18T13:53:58;35.97;;;0.80;;
3817;SDS011;1924;48.078;11.516;2023-09-18T13:56:25;36.00;;;0.80;;
3817;SDS011;1924;48.078;11.516;2023-09-18T13:58:54;36.17;;;0.80;;
3817;SDS011;1924;48.078;11.516;2023-09-18T14:01:21;36.00;;;0.80;;
3817;SDS011;1924;48.078;11.516;2023-09-18T14:03:49;35.87;;;0.80;;
3817;SDS011;1924;48.078;11.516;2023-09-18T14:06:16;35.97;;;0.80;;
3817;SDS011;1924;48.078;11.516;2023-09-18T14:08:43;36.10;;;0.80;;
3817;SDS011;1924;48.078;11.516;2023-09-18T14:11:11;35.87;;;0.80;;
3817;SDS011;1924;48.078;11.516;2023-09-18T14:13:38;35.93;;;0.80;;
3817;SDS011;1924;48.078;11.516;2023-09-18T14:16:06;35.97;;;0.80;;
3817;SDS011;1924;48.078;11.516;2023-09-18T14:18:34;36.07;;;0.80;;
3817;SDS011;1924;48.078;11.516;2023-09-18T14:21:01;36.03;;;0.80;;
3817;SDS011;1924;48.078;11.516;2023-09-18T14:23:28;35.97;;;0.80;;
3817;SDS011;1924;48.078;11.516;2023-09-18T14:25:55;35.93;;;0.80;;
3817;SDS011;1924;48.078;11.516;2023-09-18T14:28:23;36.00;;;0.80;;
3817;SDS011;1924;48.078;11.516;2023-09-18T14:30:50;35.97;;;0.80;;
3817;SDS011;1924;48.078;11.516;2023-09-18T14:33:17;35.93;;;0.80;;
3817;SDS011;1924;48.078;11.516;2023-09-18T14:35:44;35.70;;;0.80;;
3817;SDS011;1924;48.078;11.516;2023-09-18T14:38:11;35.80;;;0.80;;
3817;SDS011;1924;48.078;11.516;2023-09-18T14:40:40;36.07;;;0.80;;
3817;SDS011;1924;48.078;11.516;2023-09-18T14:43:07;36.00;;;0.80;;
3817;SDS011;1924;48.078;11.516;2023-09-18T14:45:35;35.90;;;0.80;;
3817;SDS011;1924;48.078;11.516;2023-09-18T14:48:03;35.97;;;0.80;;
3817;SDS011;1924;48.078;11.516;2023-09-18T14:50:30;35.87;;;0.80;;
3817;SDS011;1924;48.078;11.516;2023-09-18T14:52:57;35.67;;;0.80;;
3817;SDS011;1924;48.078;11.516;2023-09-18T14:55:24;36.00;;;0.80;;
3817;SDS011;1924;48.078;11.516;2023-09-18T14:57:51;35.77;;;0.80;;
3817;SDS011;1924;48.078;11.516;2023-09-18T15:00:17;35.83;;;0.80;;
3817;SDS011;1924;48.078;11.516;2023-09-18T15:02:45;35.87;;;0.80;;
3817;SDS011;1924;48.078;11.516;2023-09-18T15:05:12;35.97;;;0.80;;
3817;SDS011;1924;48.078;11.516;2023-09-18T15:07:41;36.00;;;0.80;;
3817;SDS011;1924;48.078;11.516;2023-09-18T15:10:08;35.70;;;0.80;;
3817;SDS011;1924;48.078;11.516;2023-09-18T15:12:36;35.87;;;0.80;;
3817;SDS011;1924;48.078;11.516;2023-09-18T15:15:03;35.83;;;0.80;;
3817;SDS011;1924;48.078;11.516;2023-09-18T15:17:30;35.93;;;0.80;;
3817;SDS011;1924;48.078;11.516;2023-09-18T15:19:59;36.00;;;0.80;;
3817;SDS011;1924;48.078;11.516;2023-09-18T15:22:28;35.83;;;0.80;;
3817;SDS011;1924;48.078;11.516;2023-09-18T15:24:55;35.97;;;0.80;;
3817;SDS011;1924;48.078;11.516;2023-09-18T15:27:22;35.97;;;0.80;;
3817;SDS011;1924;48.078;11.516;2023-09-18T15:29:50;35.97;;;0.80;;
3817;SDS011;1924;48.078;11.516;2023-09-18T15:32:20;36.07;;;0.80;;
3817;SDS011;1924;48.078;11.516;2023-09-18T15:34:47;36.00;;;0.80;;
3817;SDS011;1924;48.078;11.516;2023-09-18T15:37:15;36.10;;;0.80;;
3817;SDS011;1924;48.078;11.516;2023-09-18T15:39:42;35.97;;;0.80;;
3817;SDS011;1924;48.078;11.516;2023-09-18T15:42:09;36.20;;;0.80;;
3817;SDS011;1924;48.078;11.516;2023-09-18T15:44:36;36.07;;;0.80;;
3817;SDS011;1924;48.078;11.516;2023-09-18T15:47:03;36.03;;;0.80;;
3817;SDS011;1924;48.078;11.516;2023-09-18T15:49:35;36.30;;;0.80;;
3817;SDS011;1924;48.078;11.516;2023-09-18T15:52:01;36.30;;;0.80;;
3817;SDS011;1924;48.078;11.516;2023-09-18T15:54:30;36.07;;;0.80;;
3817;SDS011;1924;48.078;11.516;2023-09-18T15:56:57;36.10;;;0.80;;
3817;SDS011;1924;48.078;11.516;2023-09-18T15:59:23;36.17;;;0.80;;
3817;SDS011;1924;48.078;11.516;2023-09-18T16:01:50;36.27;;;0.80;;
3817;SDS011;1924;48.078;11.516;2023-09-18T16:04:17;36.17;;;0.80;;
3817;SDS011;1924;48.078;11.516;2023-09-18T16:06:46;36.23;;;0.80;;
3817;SDS011;1924;48.078;11.516;2023-09-18T16:09:14;36.23;;;0.80;;
3817;SDS011;1924;48.078;11.516;2023-09-18T16:11:42;36.13;;;0.80;;
3817;SDS011;1924;48.078;11.516;2023-09-18T16:14:09;36.33;;;0.80;;
3817;SDS011;1924;48.078;11.516;2023-09-18T16:16:36;36.20;;;0.80;;
3817;SDS011;1924;48.078;11.516;2023-09-18T16:19:03;35.93;;;0.80;;
3817;SDS011;1924;48.078;11.516;2023-09-18T16:21:31;36.30;;;0.80;;
3817;SDS011;1924;48.078;11.516;2023-09-18T16:23:58;36.20;;;0.80;;
3817;SDS011;1924;48.078;11.516;2023-09-18T16:26:25;36.20;;;0.80;;
3817;SDS011;1924;48.078;11.516;2023-09-18T16:28:53;36.30;;;0.80;;
3817;SDS011;1924;48.078;11.516;2023-09-18T16:31:19;36.30;;;0.80;;
3817;SDS011;1924;48.078;11.516;2023-09-18T16:33:46;36.27;;;0.80;;
3817;SDS011;1924;48.078;11.516;2023-09-18T16:36:13;36.13;;;0.80;;
3817;SDS011;1924;48.078;11.516;2023-09-18T16:38:40;36.17;;;0.80;;
3817;SDS011;1924;48.078;11.516;2023-09-18T16:41:06;36.23;;;0.80;;
3817;SDS011;1924;48.078;11.516;2023-09-18T16:43:33;36.20;;;0.80;;
3817;SDS011;1924;48.078;11.516;2023-09-18T16:46:02;36.13;;;0.80;;
3817;SDS011;1924;48.078;11.516;2023-09-18T16:48:29;36.33;;;0.80;;
3817;SDS011;1924;48.078;11.516;2023-09-18T16:50:56;36.23;;;0.80;;
3817;SDS011;1924;48.078;11.516;2023-09-18T16:53:23;36.27;;;0.80;;
3817;SDS011;1924;48.078;11.516;2023-09-18T16:55:49;36.17;;;0.80;;
3817;SDS011;1924;48.078;11.516;2023-09-18T16:58:16;36.30;;;0.80;;
3817;SDS011;1924;48.078;11.516;2023-09-18T17:00:43;36.17;;;0.80;;
3817;SDS011;1924;48.078;11.516;2023-09-18T17:03:11;36.23;;;0.80;;
3817;SDS011;1924;48.078;11.516;2023-09-18T17:05:38;36.33;;;0.80;;
3817;SDS011;1924;48.078;11.516;2023-09-18T17:08:05;36.23;;;0.80;;
3817;SDS011;1924;48.078;11.516;2023-09-18T17:10:32;36.07;;;0.80;;
3817;SDS011;1924;48.078;11.516;2023-09-18T17:12:59;36.27;;;0.80;;
3817;SDS011;1924;48.078;11.516;2023-09-18T17:15:26;36.30;;;0.80;;
3817;SDS011;1924;48.078;11.516;2023-09-18T17:17:53;36.27;;;0.80;;
3817;SDS011;1924;48.078;11.516;2023-09-18T17:20:25;36.47;;;0.80;;
3817;SDS011;1924;48.078;11.516;2023-09-18T17:22:52;36.47;;;0.80;;
3817;SDS011;1924;48.078;11.516;2023-09-18T17:25:19;36.20;;;0.80;;
3817;SDS011;1924;48.078;11.516;2023-09-18T17:27:46;36.20;;;0.80;;
3817;SDS011;1924;48.078;11.516;2023-09-18T17:30:13;36.43;;;0.80;;
3817;SDS011;1924;48.078;11.516;2023-09-18T17:32:40;36.33;;;0.80;;
3817;SDS011;1924;48.078;11.516;2023-09-18T17:35:07;36.37;;;0.80;;
3817;SDS011;1924;48.078;11.516;2023-09-18T17:37:37;36.03;;;0.80;;
3817;SDS011;1924;48.078;11.516;2023-09-18T17:40:04;36.27;;;0.80;;
3817;SDS011;1924;48.078;11.516;2023-09-18T17:42:32;36.30;;;0.80;;
3817;SDS011;1924;48.078;11.516;2023-09-18T17:44:58;36.27;;;0.80;;
3817;SDS011;1924;48.078;11.516;2023-09-18T17:47:25;36.23;;;0.80;;
3817;SDS011;1924;48.078;11.516;2023-09-18T17:49:53;36.40;;;0.80;;
3817;SDS011;1924;48.078;11.516;2023-09-18T17:52:20;36.17;;;0.80;;
3817;SDS011;1924;48.078;11.516;2023-09-18T17:54:50;36.27;;;0.80;;
3817;SDS011;1924;48.078;11.516;2023-09-18T17:57:18;36.40;;;0.80;;
3817;SDS011;1924;48.078;11.516;2023-09-18T17:59:45;36.17;;;0.80;;
3817;SDS011;1924;48.078;11.516;2023-09-18T18:02:12;36.40;;;0.80;;
3817;SDS011;1924;48.078;11.516;2023-09-18T18:04:39;36.37;;;0.80;;
3817;SDS011;1924;48.078;11.516;2023-09-18T18:07:06;36.13;;;0.80;;
3817;SDS011;1924;48.078;11.516;2023-09-18T18:09:33;36.20;;;0.80;;
3817;SDS011;1924;48.078;11.516;2023-09-18T18:12:01;36.20;;;0.80;;
3817;SDS011;1924;48.078;11.516;2023-09-18T18:14:30;36.10;;;0.80;;
3817;SDS011;1924;48.078;11.516;2023-09-18T18:16:59;36.37;;;0.80;;
3817;SDS011;1924;48.078;11.516;2023-09-18T18:19:27;36.20;;;0.80;;
3817;SDS011;1924;48.078;11.516;2023-09-18T18:21:54;36.17;;;0.80;;
3817;SDS011;1924;48.078;11.516;2023-09-18T18:24:21;36.27;;;0.80;;
3817;SDS011;1924;48.078;11.516;2023-09-18T18:26:47;36.17;;;0.80;;
3817;SDS011;1924;48.078;11.516;2023-09-18T18:29:17;36.20;;;0.80;;
3817;SDS011;1924;48.078;11.516;2023-09-18T18:31:45;36.27;;;0.80;;
3817;SDS011;1924;48.078;11.516;2023-09-18T18:34:14;36.30;;;0.80;;
3817;SDS011;1924;48.078;11.516;2023-09-18T18:36:42;36.07;;;0.80;;
3817;SDS011;1924;48.078;11.516;2023-09-18T18:39:09;36.20;;;0.80;;
3817;SDS011;1924;48.078;11.516;2023-09-18T18:41:36;36.27;;;0.80;;
3817;SDS011;1924;48.078;11.516;2023-09-18T18:44:03;36.23;;;0.80;;
3817;SDS011;1924;48.078;11.516;2023-09-18T18:46:32;36.37;;;0.80;;
3817;SDS011;1924;48.078;11.516;2023-09-18T18:48:59;36.20;;;0.80;;
3817;SDS011;1924;48.078;11.516;2023-09-18T18:51:25;36.07;;;0.80;;
3817;SDS011;1924;48.078;11.516;2023-09-18T18:53:52;36.20;;;0.80;;
3817;SDS011;1924;48.078;11.516;2023-09-18T18:56:21;36.20;;;0.80;;
3817;SDS011;1924;48.078;11.516;2023-09-18T18:58:49;36.13;;;0.80;;
3817;SDS011;1924;48.078;11.516;2023-09-18T19:01:17;36.17;;;0.80;;
3817;SDS011;1924;48.078;11.516;2023-09-18T19:03:46;36.07;;;0.80;;
3817;SDS011;1924;48.078;11.516;2023-09-18T19:06:13;36.13;;;0.80;;
3817;SDS011;1924;48.078;11.516;2023-09-18T19:08:40;36.07;;;0.80;;
3817;SDS011;1924;48.078;11.516;2023-09-18T19:11:07;36.17;;;0.80;;
3817;SDS011;1924;48.078;11.516;2023-09-18T19:13:34;36.27;;;0.80;;
3817;SDS011;1924;48.078;11.516;2023-09-18T19:16:01;36.10;;;0.80;;
3817;SDS011;1924;48.078;11.516;2023-09-18T19:18:28;36.07;;;0.80;;
3817;SDS011;1924;48.078;11.516;2023-09-18T19:20:57;36.20;;;0.80;;
3817;SDS011;1924;48.078;11.516;2023-09-18T19:23:24;36.10;;;0.80;;